createdAt,value
2018-07-06T00:00:07.038Z,5.20
2018-07-06T00:01:53.865Z,5.17
2018-07-06T00:03:40.657Z,4.67
2018-07-06T00:05:27.480Z,5.10
2018-07-06T00:07:14.237Z,5.07
2018-07-06T00:09:00.948Z,5.50
2018-07-06T00:10:47.777Z,5.63
2018-07-06T00:12:34.909Z,5.90
2018-07-06T00:14:21.760Z,5.00
2018-07-06T00:16:08.624Z,6.53
2018-07-06T00:17:55.557Z,5.57
2018-07-06T00:19:42.501Z,5.50
2018-07-06T00:21:29.560Z,5.40
2018-07-06T00:23:16.601Z,5.13
2018-07-06T00:25:03.307Z,5.93
2018-07-06T00:26:50.170Z,5.07
2018-07-06T00:28:36.901Z,5.30
2018-07-06T00:30:24.492Z,5.03
2018-07-06T00:32:11.560Z,5.37
2018-07-06T00:33:58.336Z,9.87
2018-07-06T00:35:45.096Z,5.40
2018-07-06T00:37:31.717Z,5.87
2018-07-06T00:39:18.433Z,5.97
2018-07-06T00:41:05.348Z,6.07
2018-07-06T00:42:52.036Z,6.90
2018-07-06T00:44:38.819Z,6.47
2018-07-06T00:46:25.494Z,6.47
2018-07-06T00:48:12.562Z,5.83
2018-07-06T00:49:59.805Z,5.83
2018-07-06T00:51:46.517Z,6.13
2018-07-06T00:53:33.305Z,5.63
2018-07-06T00:55:20.203Z,5.67
2018-07-06T00:57:07.339Z,5.87
2018-07-06T00:58:54.228Z,6.00
2018-07-06T01:00:41.106Z,6.50
2018-07-06T01:02:28.148Z,6.47
2018-07-06T01:04:15.009Z,6.63
2018-07-06T01:06:01.761Z,7.27
2018-07-06T01:07:48.731Z,6.80
2018-07-06T01:09:35.512Z,6.97
2018-07-06T01:11:22.570Z,6.60
2018-07-06T01:13:09.789Z,7.00
2018-07-06T01:14:56.616Z,6.33
2018-07-06T01:16:43.446Z,6.73
2018-07-06T01:18:30.288Z,7.90
2018-07-06T01:20:17.102Z,6.73
2018-07-06T01:22:03.801Z,7.00
2018-07-06T01:23:50.579Z,6.53
2018-07-06T01:25:37.268Z,7.20
2018-07-06T01:27:23.942Z,7.07
2018-07-06T01:29:10.653Z,7.47
2018-07-06T01:30:57.340Z,6.40
2018-07-06T01:32:44.090Z,6.20
2018-07-06T01:34:30.828Z,7.80
2018-07-06T01:36:17.764Z,6.33
2018-07-06T01:38:04.816Z,6.40
2018-07-06T01:39:51.583Z,5.13
2018-07-06T01:41:38.296Z,5.90
2018-07-06T01:43:25.087Z,6.00
2018-07-06T01:45:11.819Z,5.20
2018-07-06T01:46:58.712Z,4.97
2018-07-06T01:48:45.421Z,4.70
2018-07-06T01:50:32.244Z,5.03
2018-07-06T01:52:19.103Z,4.63
2018-07-06T01:54:05.886Z,4.43
2018-07-06T01:55:52.724Z,5.50
2018-07-06T01:57:39.940Z,4.83
2018-07-06T01:59:26.862Z,4.40
2018-07-06T02:01:13.574Z,4.53
2018-07-06T02:03:00.316Z,4.40
2018-07-06T02:04:47.085Z,5.23
2018-07-06T02:06:33.962Z,4.87
2018-07-06T02:08:20.631Z,4.13
2018-07-06T02:10:07.339Z,4.43
2018-07-06T02:11:54.171Z,4.40
2018-07-06T02:13:41.160Z,4.57
2018-07-06T02:15:28.159Z,3.90
2018-07-06T02:17:18.564Z,4.30
2018-07-06T02:19:05.281Z,3.83
2018-07-06T02:20:52.058Z,4.50
2018-07-06T02:22:39.361Z,4.50
2018-07-06T02:24:26.100Z,3.77
2018-07-06T02:26:12.829Z,3.97
2018-07-06T02:27:59.478Z,4.43
2018-07-06T02:29:46.407Z,4.00
2018-07-06T02:31:33.191Z,4.03
2018-07-06T02:33:20.066Z,3.70
2018-07-06T02:35:06.912Z,3.47
2018-07-06T02:36:53.734Z,4.20
2018-07-06T02:38:40.464Z,4.10
2018-07-06T02:40:27.651Z,3.67
2018-07-06T02:42:14.536Z,3.80
2018-07-06T02:44:01.631Z,3.70
2018-07-06T02:45:48.435Z,3.70
2018-07-06T02:47:35.272Z,3.80
2018-07-06T02:49:22.152Z,4.33
2018-07-06T02:51:09.049Z,3.73
2018-07-06T02:52:55.780Z,4.10
2018-07-06T02:54:42.745Z,3.77
2018-07-06T02:56:29.550Z,3.93
2018-07-06T02:58:16.210Z,3.57
2018-07-06T03:00:02.976Z,4.10
2018-07-06T03:01:49.955Z,3.67
2018-07-06T03:03:36.824Z,4.27
2018-07-06T03:05:23.738Z,7.37
2018-07-06T03:07:10.601Z,3.87
2018-07-06T03:08:57.584Z,3.37
2018-07-06T03:10:44.471Z,4.37
2018-07-06T03:12:31.211Z,3.53
2018-07-06T03:14:18.316Z,4.93
2018-07-06T03:16:05.225Z,3.20
2018-07-06T03:17:52.444Z,4.07
2018-07-06T03:19:39.650Z,3.70
2018-07-06T03:21:26.467Z,3.70
2018-07-06T03:23:13.344Z,4.87
2018-07-06T03:25:00.015Z,3.63
2018-07-06T03:26:46.781Z,6.33
2018-07-06T03:28:34.456Z,3.50
2018-07-06T03:30:21.005Z,3.73
2018-07-06T03:32:07.776Z,3.67
2018-07-06T03:33:54.589Z,3.83
2018-07-06T03:35:41.260Z,3.70
2018-07-06T03:37:28.129Z,3.63
2018-07-06T03:39:15.027Z,4.27
2018-07-06T03:41:01.882Z,3.53
2018-07-06T03:42:48.716Z,3.33
2018-07-06T03:44:35.591Z,3.53
2018-07-06T03:46:22.280Z,3.60
2018-07-06T03:48:09.081Z,3.23
2018-07-06T03:49:55.822Z,3.77
2018-07-06T03:51:42.615Z,3.33
2018-07-06T03:53:29.243Z,3.23
2018-07-06T03:55:20.673Z,3.60
2018-07-06T03:57:07.546Z,3.50
2018-07-06T03:58:54.608Z,4.20
2018-07-06T04:00:41.456Z,3.93
2018-07-06T04:02:28.152Z,4.20
2018-07-06T04:04:14.856Z,3.43
2018-07-06T04:06:01.906Z,3.87
2018-07-06T04:07:48.758Z,3.33
2018-07-06T04:09:35.607Z,4.00
2018-07-06T04:11:22.629Z,3.80
2018-07-06T04:13:09.380Z,4.27
2018-07-06T04:14:56.056Z,3.20
2018-07-06T04:16:43.374Z,4.47
2018-07-06T04:18:30.208Z,3.47
2018-07-06T04:20:17.090Z,3.83
2018-07-06T04:22:03.909Z,3.90
2018-07-06T04:23:50.760Z,3.27
2018-07-06T04:25:37.535Z,3.60
2018-07-06T04:27:24.396Z,3.07
2018-07-06T04:29:11.203Z,3.10
2018-07-06T04:30:58.060Z,3.37
2018-07-06T04:32:44.844Z,3.37
2018-07-06T04:34:31.995Z,3.60
2018-07-06T04:36:19.036Z,3.90
2018-07-06T04:38:05.927Z,3.47
2018-07-06T04:39:52.818Z,3.53
2018-07-06T04:41:39.699Z,4.47
2018-07-06T04:43:26.592Z,3.20
2018-07-06T04:45:13.272Z,3.17
2018-07-06T04:46:59.953Z,3.20
2018-07-06T04:48:46.819Z,3.30
2018-07-06T04:50:33.631Z,3.30
2018-07-06T04:52:20.374Z,4.10
2018-07-06T04:54:07.144Z,3.43
2018-07-06T04:55:54.322Z,3.53
2018-07-06T04:57:41.259Z,5.03
2018-07-06T04:59:28.052Z,3.70
2018-07-06T05:01:15.162Z,4.00
2018-07-06T05:03:02.076Z,4.03
2018-07-06T05:04:49.020Z,4.13
2018-07-06T05:06:35.825Z,4.03
2018-07-06T05:08:23.700Z,4.60
2018-07-06T05:10:10.886Z,4.40
2018-07-06T05:11:57.735Z,4.20
2018-07-06T05:13:44.690Z,4.60
2018-07-06T05:15:31.380Z,5.43
2018-07-06T05:17:18.285Z,4.77
2018-07-06T05:19:05.152Z,5.27
2018-07-06T05:20:51.790Z,7.77
2018-07-06T05:22:38.693Z,4.43
2018-07-06T05:24:25.516Z,4.57
2018-07-06T05:26:12.342Z,4.43
2018-07-06T05:27:59.172Z,6.63
2018-07-06T05:29:46.624Z,5.33
2018-07-06T05:31:33.509Z,5.20
2018-07-06T05:33:21.173Z,5.30
2018-07-06T05:35:07.981Z,5.07
2018-07-06T05:36:54.786Z,6.40
2018-07-06T05:38:41.514Z,5.53
2018-07-06T05:40:28.208Z,6.13
2018-07-06T05:42:15.090Z,6.67
2018-07-06T05:44:01.803Z,7.27
2018-07-06T05:45:48.609Z,7.50
2018-07-06T05:47:35.435Z,7.87
2018-07-06T05:49:22.516Z,8.50
2018-07-06T05:51:09.368Z,8.77
2018-07-06T05:52:57.328Z,8.93
2018-07-06T05:54:44.376Z,8.93
2018-07-06T05:56:31.061Z,8.97
2018-07-06T05:58:17.892Z,9.77
2018-07-06T06:00:04.722Z,10.50
2018-07-06T06:01:51.554Z,9.73
2018-07-06T06:03:38.581Z,11.00
2018-07-06T06:05:25.368Z,11.43
2018-07-06T06:07:12.150Z,9.90
2018-07-06T06:08:46.712Z,10.23
2018-07-06T06:10:22.275Z,8.80
2018-07-06T06:11:57.940Z,9.60
2018-07-06T06:13:33.644Z,8.27
2018-07-06T06:15:09.465Z,10.37
2018-07-06T06:16:45.042Z,9.90
2018-07-06T06:18:20.776Z,10.53
2018-07-06T06:19:56.369Z,11.60
2018-07-06T06:21:31.957Z,11.47
2018-07-06T06:23:07.608Z,9.80
2018-07-06T06:24:43.149Z,9.33
2018-07-06T06:26:24.609Z,10.13
2018-07-06T06:28:00.160Z,10.23
2018-07-06T06:29:35.849Z,8.60
2018-07-06T06:31:11.428Z,7.80
2018-07-06T06:32:46.953Z,9.47
2018-07-06T06:34:22.707Z,9.53
2018-07-06T06:35:58.273Z,7.97
2018-07-06T06:37:33.832Z,8.23
2018-07-06T06:39:09.401Z,9.97
2018-07-06T06:40:44.950Z,9.47
2018-07-06T06:42:20.526Z,8.80
2018-07-06T06:43:56.143Z,8.87
2018-07-06T06:45:31.689Z,8.93
2018-07-06T06:47:07.311Z,8.90
2018-07-06T06:48:42.997Z,9.73
2018-07-06T06:50:18.617Z,10.07
2018-07-06T06:51:54.439Z,10.57
2018-07-06T06:53:29.996Z,10.73
2018-07-06T06:55:05.544Z,9.93
2018-07-06T06:56:41.290Z,10.20
2018-07-06T06:58:16.927Z,10.03
2018-07-06T06:59:52.493Z,10.63
2018-07-06T07:01:28.081Z,10.57
2018-07-06T07:03:03.956Z,10.77
2018-07-06T07:04:39.789Z,9.70
2018-07-06T07:06:15.357Z,9.47
2018-07-06T07:07:50.971Z,9.63
2018-07-06T07:09:26.439Z,9.47
2018-07-06T07:11:02.025Z,9.63
2018-07-06T07:12:37.586Z,10.20
2018-07-06T07:14:13.270Z,10.37
2018-07-06T07:15:48.782Z,9.00
2018-07-06T07:17:24.874Z,9.60
2018-07-06T07:19:00.460Z,9.77
2018-07-06T07:20:36.054Z,9.83
2018-07-06T07:22:11.642Z,10.30
2018-07-06T07:23:47.212Z,11.73
2018-07-06T07:27:28.167Z,11.03
2018-07-06T07:29:03.728Z,10.50
2018-07-06T07:30:39.365Z,9.40
2018-07-06T07:32:14.995Z,9.37
2018-07-06T07:33:50.773Z,8.13
2018-07-06T07:35:26.384Z,9.50
2018-07-06T07:37:02.096Z,8.80
2018-07-06T07:38:37.662Z,9.03
2018-07-06T07:40:13.357Z,9.57
2018-07-06T07:41:48.957Z,10.20
2018-07-06T07:43:24.549Z,9.17
2018-07-06T07:45:00.147Z,8.80
2018-07-06T07:46:35.882Z,9.80
2018-07-06T07:48:11.454Z,8.93
2018-07-06T07:49:47.295Z,9.17
2018-07-06T07:52:01.327Z,10.03
2018-07-06T07:53:48.065Z,9.57
2018-07-06T07:55:23.619Z,9.30
2018-07-06T07:57:00.113Z,9.53
2018-07-06T07:58:35.696Z,10.63
2018-07-06T08:00:11.576Z,9.77
2018-07-06T08:01:47.127Z,9.03
2018-07-06T08:03:22.732Z,8.10
2018-07-06T08:04:58.303Z,10.67
2018-07-06T08:06:33.898Z,9.73
2018-07-06T08:08:09.451Z,11.97
2018-07-06T08:09:45.093Z,11.33
2018-07-06T08:11:20.702Z,10.00
2018-07-06T08:12:56.273Z,10.23
2018-07-06T08:14:31.882Z,9.53
2018-07-06T08:16:07.815Z,10.07
2018-07-06T08:17:43.633Z,9.37
2018-07-06T08:19:19.428Z,9.97
2018-07-06T08:20:54.993Z,9.37
2018-07-06T08:22:30.569Z,8.23
2018-07-06T08:24:06.172Z,7.73
2018-07-06T08:25:41.740Z,9.90
2018-07-06T08:27:17.331Z,9.13
2018-07-06T08:28:52.883Z,8.10
2018-07-06T08:30:29.188Z,9.37
2018-07-06T08:32:04.753Z,9.13
2018-07-06T08:33:49.022Z,7.73
2018-07-06T08:35:35.831Z,8.30
2018-07-06T08:37:28.046Z,7.40
2018-07-06T08:39:03.924Z,9.30
2018-07-06T08:40:39.488Z,9.40
2018-07-06T08:42:15.041Z,8.17
2018-07-06T08:43:50.597Z,8.93
2018-07-06T08:45:26.893Z,8.37
2018-07-06T08:47:02.473Z,8.20
2018-07-06T08:48:38.147Z,8.70
2018-07-06T08:50:13.694Z,7.30
2018-07-06T08:51:49.601Z,7.00
2018-07-06T08:53:25.142Z,7.57
2018-07-06T08:55:00.741Z,8.20
2018-07-06T08:56:36.660Z,7.27
2018-07-06T08:58:12.526Z,7.70
2018-07-06T08:59:48.768Z,7.70
2018-07-06T09:01:24.529Z,7.00
2018-07-06T09:03:00.120Z,6.77
2018-07-06T09:04:36.066Z,7.90
2018-07-06T09:06:11.913Z,7.47
2018-07-06T09:07:47.761Z,7.20
2018-07-06T09:09:23.379Z,7.50
2018-07-06T09:10:58.891Z,7.97
2018-07-06T09:12:34.473Z,7.40
2018-07-06T09:14:10.067Z,6.60
2018-07-06T09:15:45.672Z,9.23
2018-07-06T09:17:22.788Z,7.07
2018-07-06T09:18:58.423Z,6.20
2018-07-06T09:20:33.980Z,8.13
2018-07-06T09:22:09.663Z,7.77
2018-07-06T09:23:45.436Z,7.10
2018-07-06T09:25:21.263Z,8.13
2018-07-06T09:26:56.787Z,7.07
2018-07-06T09:28:32.507Z,8.50
2018-07-06T09:30:08.363Z,6.63
2018-07-06T09:31:44.039Z,7.53
2018-07-06T09:33:19.592Z,8.60
2018-07-06T09:34:55.729Z,7.73
2018-07-06T09:36:31.741Z,7.97
2018-07-06T09:38:07.311Z,8.07
2018-07-06T09:39:43.605Z,7.20
2018-07-06T09:41:19.183Z,8.00
2018-07-06T09:42:54.752Z,7.40
2018-07-06T09:44:30.378Z,7.57
2018-07-06T09:46:06.213Z,7.00
2018-07-06T09:47:41.776Z,7.40
2018-07-06T09:49:17.499Z,7.47
2018-07-06T09:50:53.106Z,9.07
2018-07-06T09:52:28.667Z,7.70
2018-07-06T09:54:04.230Z,6.93
2018-07-06T09:55:39.828Z,7.20
2018-07-06T09:57:15.406Z,8.50
2018-07-06T09:58:51.064Z,7.67
2018-07-06T10:00:32.055Z,7.73
2018-07-06T10:02:07.685Z,7.50
2018-07-06T10:03:43.232Z,7.33
2018-07-06T10:05:18.801Z,8.23
2018-07-06T10:06:54.626Z,8.13
2018-07-06T10:08:30.202Z,9.00
2018-07-06T10:10:05.802Z,7.57
2018-07-06T10:11:41.364Z,13.57
2018-07-06T10:13:17.016Z,8.43
2018-07-06T10:14:52.625Z,8.73
2018-07-06T10:16:28.159Z,7.70
2018-07-06T10:18:03.720Z,8.13
2018-07-06T10:19:39.622Z,8.00
2018-07-06T10:21:15.165Z,7.30
2018-07-06T10:22:50.740Z,6.10
2018-07-06T10:24:26.327Z,6.83
2018-07-06T10:26:01.869Z,6.40
2018-07-06T10:27:46.217Z,7.10
2018-07-06T10:29:48.369Z,7.40
2018-07-06T10:31:34.097Z,7.80
2018-07-06T10:33:09.841Z,7.80
2018-07-06T10:34:45.428Z,6.83
2018-07-06T10:36:21.182Z,6.77
2018-07-06T10:37:56.784Z,6.70
2018-07-06T10:39:32.379Z,7.13
2018-07-06T10:41:07.884Z,7.60
2018-07-06T10:42:43.455Z,7.00
2018-07-06T10:44:19.050Z,7.23
2018-07-06T10:45:54.599Z,6.53
2018-07-06T10:47:30.162Z,6.23
2018-07-06T10:49:06.112Z,5.50
2018-07-06T10:50:41.810Z,5.10
2018-07-06T10:52:17.862Z,5.47
2018-07-06T10:53:53.425Z,5.20
2018-07-06T10:55:29.038Z,5.90
2018-07-06T10:57:04.940Z,5.53
2018-07-06T10:58:40.517Z,6.20
2018-07-06T11:00:16.062Z,5.70
2018-07-06T11:01:51.676Z,5.30
2018-07-06T11:03:27.261Z,7.00
2018-07-06T11:05:02.904Z,6.30
2018-07-06T11:06:38.538Z,5.60
2018-07-06T11:08:14.134Z,5.90
2018-07-06T11:09:49.703Z,5.83
2018-07-06T11:11:25.279Z,6.13
2018-07-06T11:13:00.852Z,6.50
2018-07-06T11:14:36.442Z,4.83
2018-07-06T11:16:11.980Z,4.67
2018-07-06T11:17:47.633Z,5.17
2018-07-06T11:19:23.349Z,4.87
2018-07-06T11:20:58.946Z,5.20
2018-07-06T11:22:34.593Z,4.73
2018-07-06T11:24:10.725Z,6.20
2018-07-06T11:25:46.276Z,5.77
2018-07-06T11:27:22.080Z,5.03
2018-07-06T11:28:57.664Z,4.80
2018-07-06T11:30:33.264Z,5.03
2018-07-06T11:32:08.883Z,5.47
2018-07-06T11:33:44.384Z,4.63
2018-07-06T11:35:20.069Z,4.57
2018-07-06T11:36:55.670Z,4.93
2018-07-06T11:38:31.276Z,4.50
2018-07-06T11:40:06.852Z,4.27
2018-07-06T11:41:42.556Z,4.60
2018-07-06T11:43:18.382Z,5.03
2018-07-06T11:44:54.062Z,4.87
2018-07-06T11:46:29.837Z,5.37
2018-07-06T11:48:05.393Z,4.87
2018-07-06T11:49:41.475Z,5.40
2018-07-06T11:51:17.225Z,4.87
2018-07-06T11:52:52.807Z,5.23
2018-07-06T11:54:28.364Z,4.63
2018-07-06T11:56:04.032Z,4.20
2018-07-06T11:57:39.573Z,4.83
2018-07-06T11:59:15.253Z,5.03
2018-07-06T12:00:50.876Z,4.60
2018-07-06T12:02:26.507Z,3.60
2018-07-06T12:04:02.492Z,3.70
2018-07-06T12:05:38.365Z,4.50
2018-07-06T12:07:14.041Z,3.90
2018-07-06T12:08:49.606Z,4.03
2018-07-06T12:10:25.177Z,4.00
2018-07-06T12:12:00.705Z,5.00
2018-07-06T12:13:36.590Z,4.40
2018-07-06T12:15:12.493Z,5.13
2018-07-06T12:16:48.355Z,4.93
2018-07-06T12:18:23.961Z,4.20
2018-07-06T12:19:59.532Z,4.37
2018-07-06T12:21:35.551Z,4.80
2018-07-06T12:23:11.122Z,4.80
2018-07-06T12:24:46.725Z,4.47
2018-07-06T12:26:22.279Z,5.53
2018-07-06T12:27:57.829Z,4.87
2018-07-06T12:29:33.396Z,4.53
2018-07-06T12:31:09.016Z,4.40
2018-07-06T12:32:45.003Z,4.17
2018-07-06T12:34:20.556Z,4.47
2018-07-06T12:35:56.249Z,4.97
2018-07-06T12:37:31.844Z,4.40
2018-07-06T12:39:07.436Z,4.50
2018-07-06T12:40:43.262Z,4.50
2018-07-06T12:42:19.177Z,4.57
2018-07-06T12:43:54.748Z,5.37
2018-07-06T12:45:30.500Z,3.93
2018-07-06T12:47:06.115Z,4.43
2018-07-06T12:48:41.711Z,3.50
2018-07-06T12:50:17.518Z,3.90
2018-07-06T12:51:56.157Z,4.13
2018-07-06T12:53:32.014Z,3.80
2018-07-06T12:55:07.745Z,3.40
2018-07-06T12:56:43.706Z,4.00
2018-07-06T12:58:19.346Z,3.80
2018-07-06T12:59:54.846Z,3.20
2018-07-06T13:01:30.411Z,3.85
2018-07-06T13:03:06.007Z,4.20
2018-07-06T13:04:41.556Z,4.12
2018-07-06T13:06:17.154Z,3.57
2018-07-06T13:07:52.731Z,3.60
2018-07-06T13:09:28.275Z,3.67
2018-07-06T13:11:03.886Z,3.50
2018-07-06T13:12:39.485Z,4.97
2018-07-06T13:14:15.307Z,3.67
2018-07-06T13:15:50.972Z,3.60
2018-07-06T13:17:26.530Z,3.20
2018-07-06T13:19:02.089Z,3.40
2018-07-06T13:20:37.682Z,3.37
2018-07-06T13:22:14.067Z,2.80
2018-07-06T13:23:50.024Z,2.90
2018-07-06T13:25:25.644Z,3.35
2018-07-06T13:27:01.434Z,2.97
2018-07-06T13:28:37.010Z,3.60
2018-07-06T13:30:12.599Z,3.20
2018-07-06T13:31:48.167Z,3.10
2018-07-06T13:33:23.762Z,3.37
2018-07-06T13:34:59.329Z,4.03
2018-07-06T13:36:34.914Z,4.03
2018-07-06T13:38:10.468Z,3.40
2018-07-06T13:39:46.036Z,4.07
2018-07-06T13:41:21.631Z,3.57
2018-07-06T13:42:57.191Z,3.60
2018-07-06T13:44:32.749Z,4.00
2018-07-06T13:46:08.275Z,3.63
2018-07-06T13:47:43.858Z,3.50
2018-07-06T13:49:19.896Z,4.00
2018-07-06T13:50:55.440Z,4.20
2018-07-06T13:52:31.052Z,4.23
2018-07-06T13:54:06.813Z,3.50
2018-07-06T13:55:42.691Z,3.53
2018-07-06T13:57:18.250Z,3.13
2018-07-06T13:58:54.598Z,3.40
2018-07-06T14:00:30.385Z,3.60
2018-07-06T14:02:06.308Z,3.27
2018-07-06T14:03:42.121Z,2.70
2018-07-06T14:05:17.688Z,3.30
2018-07-06T14:06:53.594Z,3.37
2018-07-06T14:08:29.153Z,3.58
2018-07-06T14:10:05.246Z,3.22
2018-07-06T14:11:41.084Z,3.70
2018-07-06T14:13:16.611Z,4.30
2018-07-06T14:14:52.257Z,3.70
2018-07-06T14:16:27.861Z,3.83
2018-07-06T14:18:03.470Z,3.98
2018-07-06T14:19:39.127Z,5.50
2018-07-06T14:21:14.635Z,4.47
2018-07-06T14:22:50.364Z,3.47
2018-07-06T14:24:26.106Z,4.50
2018-07-06T14:26:01.728Z,3.37
2018-07-06T14:27:37.303Z,3.37
2018-07-06T14:29:12.890Z,3.10
2018-07-06T14:30:48.434Z,3.10
2018-07-06T14:32:23.984Z,3.30
2018-07-06T14:33:59.565Z,9.60
2018-07-06T14:35:35.096Z,3.47
2018-07-06T14:37:10.645Z,3.30
2018-07-06T14:38:46.233Z,2.83
2018-07-06T14:40:21.763Z,3.10
2018-07-06T14:41:57.339Z,2.80
2018-07-06T14:43:32.945Z,2.67
2018-07-06T14:45:08.506Z,2.77
2018-07-06T14:46:44.066Z,2.60
2018-07-06T14:48:19.666Z,3.43
2018-07-06T14:49:55.294Z,2.52
2018-07-06T14:51:30.871Z,2.83
2018-07-06T14:53:06.453Z,2.70
2018-07-06T14:54:42.028Z,2.20
2018-07-06T14:56:17.609Z,2.47
2018-07-06T14:57:53.584Z,2.77
2018-07-06T14:59:29.415Z,2.90
2018-07-06T15:01:05.007Z,3.55
2018-07-06T15:02:40.655Z,2.40
2018-07-06T15:04:16.254Z,2.50
2018-07-06T15:05:51.999Z,2.87
2018-07-06T15:07:27.594Z,2.42
2018-07-06T15:09:03.288Z,2.60
2018-07-06T15:10:38.815Z,2.50
2018-07-06T15:12:14.455Z,2.42
2018-07-06T15:13:50.013Z,2.40
2018-07-06T15:15:25.576Z,2.27
2018-07-06T15:17:01.124Z,2.47
2018-07-06T15:18:36.716Z,3.02
2018-07-06T15:20:12.361Z,2.33
2018-07-06T15:21:47.964Z,2.33
2018-07-06T15:23:23.548Z,2.55
2018-07-06T15:24:59.127Z,2.30
2018-07-06T15:26:34.795Z,2.33
2018-07-06T15:28:10.381Z,2.15
2018-07-06T15:29:45.930Z,2.35
2018-07-06T15:31:21.923Z,2.60
2018-07-06T15:32:57.454Z,2.20
2018-07-06T15:34:33.011Z,2.00
2018-07-06T15:36:08.607Z,2.07
2018-07-06T15:37:44.147Z,2.07
2018-07-06T15:39:19.847Z,2.10
2018-07-06T15:40:55.453Z,1.87
2018-07-06T15:42:30.946Z,1.95
2018-07-06T15:44:06.646Z,1.82
2018-07-06T15:45:42.206Z,1.90
2018-07-06T15:47:17.790Z,1.70
2018-07-06T15:48:53.492Z,2.20
2018-07-06T15:50:29.405Z,1.65
2018-07-06T15:52:04.983Z,1.60
2018-07-06T15:53:40.602Z,1.60
2018-07-06T15:55:16.138Z,1.80
2018-07-06T15:56:51.747Z,2.10
2018-07-06T15:58:27.370Z,1.90
2018-07-06T16:00:02.937Z,3.87
2018-07-06T16:01:38.510Z,2.47
2018-07-06T16:03:14.121Z,2.93
2018-07-06T16:04:49.710Z,3.20
2018-07-06T16:06:25.271Z,3.93
2018-07-06T16:08:00.851Z,4.50
2018-07-06T16:09:36.414Z,4.43
2018-07-06T16:11:11.962Z,4.47
2018-07-06T16:12:47.563Z,4.20
2018-07-06T16:14:23.150Z,3.80
2018-07-06T16:15:58.721Z,4.53
2018-07-06T16:17:34.391Z,3.87
2018-07-06T16:19:09.933Z,4.20
2018-07-06T16:20:45.537Z,4.33
2018-07-06T16:22:21.509Z,3.80
2018-07-06T16:23:57.089Z,5.57
2018-07-06T16:25:32.814Z,3.47
2018-07-06T16:27:08.377Z,3.57
2018-07-06T16:28:43.928Z,3.77
2018-07-06T16:30:19.753Z,3.50
2018-07-06T16:31:55.366Z,3.40
2018-07-06T16:33:30.943Z,3.47
2018-07-06T16:35:06.610Z,3.50
2018-07-06T16:36:42.199Z,3.20
2018-07-06T16:38:17.757Z,3.20
2018-07-06T16:39:53.327Z,6.50
2018-07-06T16:41:28.977Z,3.40
2018-07-06T16:43:04.560Z,3.90
2018-07-06T16:44:40.208Z,3.40
2018-07-06T16:46:16.212Z,3.20
2018-07-06T16:47:51.741Z,3.00
2018-07-06T16:49:27.291Z,3.00
2018-07-06T16:51:03.032Z,3.07
2018-07-06T16:52:38.900Z,4.47
2018-07-06T16:54:14.592Z,3.20
2018-07-06T16:55:50.358Z,3.03
2018-07-06T16:57:25.976Z,2.90
2018-07-06T16:59:01.516Z,3.00
2018-07-06T17:00:37.140Z,2.73
2018-07-06T17:02:12.732Z,2.40
2018-07-06T17:03:48.464Z,2.53
2018-07-06T17:05:24.044Z,2.63
2018-07-06T17:06:59.662Z,2.43
2018-07-06T17:08:35.199Z,2.63
2018-07-06T17:10:11.046Z,2.57
2018-07-06T17:11:46.844Z,2.63
2018-07-06T17:13:22.596Z,2.80
2018-07-06T17:14:58.194Z,2.60
2018-07-06T17:16:33.816Z,2.70
2018-07-06T17:18:09.562Z,3.33
2018-07-06T17:19:45.156Z,2.43
2018-07-06T17:21:20.679Z,2.33
2018-07-06T17:22:56.301Z,2.37
2018-07-06T17:24:31.857Z,2.23
2018-07-06T17:26:07.405Z,2.10
2018-07-06T17:27:43.094Z,2.43
2018-07-06T17:29:18.716Z,2.10
2018-07-06T17:30:54.276Z,2.20
2018-07-06T17:32:29.884Z,2.00
2018-07-06T17:34:05.474Z,3.13
2018-07-06T17:35:41.347Z,2.40
2018-07-06T17:37:16.946Z,1.83
2018-07-06T17:38:52.536Z,1.97
2018-07-06T17:40:28.104Z,1.90
2018-07-06T17:42:03.666Z,3.13
2018-07-06T17:43:39.228Z,2.40
2018-07-06T17:45:14.837Z,2.00
2018-07-06T17:46:50.708Z,2.10
2018-07-06T17:48:26.315Z,1.80
2018-07-06T17:50:01.854Z,2.67
2018-07-06T17:51:37.439Z,2.07
2018-07-06T17:53:13.043Z,1.60
2018-07-06T17:54:48.588Z,1.70
2018-07-06T17:56:25.880Z,1.70
2018-07-06T17:58:01.393Z,1.90
2018-07-06T17:59:36.985Z,1.67
2018-07-06T18:01:12.523Z,2.13
2018-07-06T18:02:48.133Z,1.80
2018-07-06T18:04:23.688Z,1.50
2018-07-06T18:05:59.290Z,1.70
2018-07-06T18:07:35.170Z,1.80
2018-07-06T18:09:10.817Z,2.23
2018-07-06T18:10:46.293Z,1.87
2018-07-06T18:12:21.847Z,1.90
2018-07-06T18:13:57.490Z,1.80
2018-07-06T18:15:33.396Z,2.03
2018-07-06T18:17:08.952Z,2.17
2018-07-06T18:18:44.564Z,1.97
2018-07-06T18:20:20.754Z,1.90
2018-07-06T18:21:56.514Z,2.00
2018-07-06T18:23:32.675Z,1.53
2018-07-06T18:25:08.586Z,2.20
2018-07-06T18:26:44.216Z,1.63
2018-07-06T18:28:19.979Z,1.93
2018-07-06T18:29:55.610Z,1.83
2018-07-06T18:31:31.216Z,1.83
2018-07-06T18:33:06.759Z,1.60
2018-07-06T18:34:42.295Z,1.87
2018-07-06T18:36:17.834Z,1.90
2018-07-06T18:37:53.443Z,1.80
2018-07-06T18:39:29.222Z,2.00
2018-07-06T18:41:04.773Z,1.60
2018-07-06T18:42:40.362Z,1.53
2018-07-06T18:44:16.102Z,1.83
2018-07-06T18:45:51.919Z,1.80
2018-07-06T18:47:27.460Z,1.90
2018-07-06T18:50:52.926Z,2.10
2018-07-06T18:52:28.530Z,1.80
2018-07-06T18:54:04.146Z,1.80
2018-07-06T18:55:39.719Z,1.63
2018-07-06T18:57:15.270Z,1.83
2018-07-06T18:58:50.835Z,2.50
2018-07-06T19:00:26.497Z,1.80
2018-07-06T19:02:01.140Z,1.70
2018-07-06T19:03:36.656Z,1.80
2018-07-06T19:05:12.270Z,1.70
2018-07-06T19:06:47.852Z,1.40
2018-07-06T19:08:23.608Z,1.80
2018-07-06T19:09:59.257Z,1.50
2018-07-06T19:11:35.069Z,1.40
2018-07-06T19:13:10.673Z,1.30
2018-07-06T19:14:46.240Z,1.70
2018-07-06T19:16:21.821Z,1.80
2018-07-06T19:17:57.633Z,1.90
2018-07-06T19:19:33.172Z,2.10
2018-07-06T19:21:08.913Z,1.73
2018-07-06T19:22:44.483Z,1.87
2018-07-06T19:24:20.044Z,1.80
2018-07-06T19:25:55.972Z,3.20
2018-07-06T19:27:31.622Z,1.90
2018-07-06T19:29:07.207Z,2.13
2018-07-06T19:30:42.866Z,2.17
2018-07-06T19:32:18.457Z,1.90
2018-07-06T19:33:54.050Z,2.07
2018-07-06T19:35:29.634Z,1.83
2018-07-06T19:37:05.183Z,1.80
2018-07-06T19:38:40.712Z,2.03
2018-07-06T19:40:16.285Z,1.90
2018-07-06T19:41:51.827Z,4.03
2018-07-06T19:43:27.391Z,1.70
2018-07-06T19:45:02.976Z,1.97
2018-07-06T19:46:38.518Z,2.10
2018-07-06T19:48:14.359Z,1.83
2018-07-06T19:49:49.895Z,1.70
2018-07-06T19:51:25.477Z,1.80
2018-07-06T19:53:01.048Z,2.20
2018-07-06T19:54:36.643Z,2.23
2018-07-06T19:56:12.465Z,2.57
2018-07-06T19:57:48.044Z,2.13
2018-07-06T19:59:23.638Z,1.90
2018-07-06T20:00:59.184Z,2.40
2018-07-06T20:02:34.738Z,3.23
2018-07-06T20:04:10.376Z,2.40
2018-07-06T20:05:45.988Z,2.30
2018-07-06T20:07:21.565Z,1.90
2018-07-06T20:08:57.127Z,2.23
2018-07-06T20:10:32.695Z,3.07
2018-07-06T20:12:08.409Z,3.00
2018-07-06T20:13:43.995Z,2.00
2018-07-06T20:15:19.592Z,2.60
2018-07-06T20:16:55.140Z,2.20
2018-07-06T20:18:30.775Z,2.10
2018-07-06T20:20:07.112Z,2.27
2018-07-06T20:21:42.944Z,2.60
2018-07-06T20:23:18.511Z,2.00
2018-07-06T20:24:54.242Z,2.03
2018-07-06T20:26:29.780Z,2.10
2018-07-06T20:28:05.481Z,2.20
2018-07-06T20:29:41.065Z,2.07
2018-07-06T20:31:16.649Z,1.90
2018-07-06T20:32:52.454Z,2.37
2018-07-06T20:34:28.173Z,2.00
2018-07-06T20:36:04.116Z,2.00
2018-07-06T20:37:39.711Z,2.60
2018-07-06T20:39:15.303Z,1.97
2018-07-06T20:40:50.892Z,2.27
2018-07-06T20:42:26.484Z,1.90
2018-07-06T20:44:02.236Z,2.30
2018-07-06T20:45:37.801Z,2.33
2018-07-06T20:47:13.444Z,2.20
2018-07-06T20:48:49.008Z,2.33
2018-07-06T20:50:24.654Z,2.50
2018-07-06T20:52:00.250Z,2.20
2018-07-06T20:53:35.851Z,2.17
2018-07-06T20:55:11.435Z,2.40
2018-07-06T20:56:47.024Z,2.17
2018-07-06T20:58:22.592Z,2.20
2018-07-06T20:59:58.244Z,2.30
2018-07-06T21:01:34.008Z,2.30
2018-07-06T21:03:09.759Z,2.37
2018-07-06T21:04:45.667Z,2.40
2018-07-06T21:06:21.256Z,2.10
2018-07-06T21:07:56.826Z,4.00
2018-07-06T21:09:32.379Z,2.20
2018-07-06T21:11:08.213Z,2.70
2018-07-06T21:12:44.048Z,2.50
2018-07-06T21:14:19.632Z,2.20
2018-07-06T21:15:55.245Z,2.50
2018-07-06T21:17:30.808Z,2.30
2018-07-06T21:19:06.504Z,2.40
2018-07-06T21:20:42.127Z,2.67
2018-07-06T21:22:17.742Z,2.20
2018-07-06T21:23:53.297Z,2.30
2018-07-06T21:25:28.842Z,2.50
2018-07-06T21:27:04.422Z,2.40
2018-07-06T21:28:40.044Z,2.50
2018-07-06T21:30:15.737Z,2.53
2018-07-06T21:31:51.348Z,2.27
2018-07-06T21:33:26.937Z,2.60
2018-07-06T21:35:02.815Z,3.10
2018-07-06T21:36:38.546Z,2.37
2018-07-06T21:38:14.169Z,2.40
2018-07-06T21:39:49.768Z,2.40
2018-07-06T21:41:25.335Z,2.50
2018-07-06T21:43:01.031Z,2.40
2018-07-06T21:44:36.590Z,2.23
2018-07-06T21:46:12.178Z,2.30
2018-07-06T21:47:47.738Z,2.10
2018-07-06T21:49:23.320Z,2.40
2018-07-06T21:50:58.908Z,2.43
2018-07-06T21:52:34.512Z,2.30
2018-07-06T21:54:10.091Z,2.70
2018-07-06T21:55:45.650Z,2.33